sensor_id;sensor_type;location;lat;lon;timestamp;temperature;humidity
75719;DHT22;64340;48.534;-3.036;2024-03-07T00:02:17;15.30;60.50
75719;DHT22;64340;48.534;-3.036;2024-03-07T00:04:44;15.30;60.50
75719;DHT22;64340;48.534;-3.036;2024-03-07T00:07:10;15.30;60.50
75719;DHT22;64340;48.534;-3.036;2024-03-07T00:09:36;15.30;60.50
75719;DHT22;64340;48.534;-3.036;2024-03-07T00:12:02;15.30;60.50
75719;DHT22;64340;48.534;-3.036;2024-03-07T00:14:28;15.20;60.50
75719;DHT22;64340;48.534;-3.036;2024-03-07T00:16:55;15.20;60.50
75719;DHT22;64340;48.534;-3.036;2024-03-07T00:19:21;15.20;60.50
75719;DHT22;64340;48.534;-3.036;2024-03-07T00:21:47;15.20;60.50
75719;DHT22;64340;48.534;-3.036;2024-03-07T00:24:13;15.10;60.60
75719;DHT22;64340;48.534;-3.036;2024-03-07T00:26:42;15.10;60.60
75719;DHT22;64340;48.534;-3.036;2024-03-07T00:29:08;15.10;60.60
75719;DHT22;64340;48.534;-3.036;2024-03-07T00:31:34;15.00;60.60
75719;DHT22;64340;48.534;-3.036;2024-03-07T00:33:59;15.00;60.50
75719;DHT22;64340;48.534;-3.036;2024-03-07T00:36:25;15.00;60.50
75719;DHT22;64340;48.534;-3.036;2024-03-07T00:38:54;15.00;60.60
75719;DHT22;64340;48.534;-3.036;2024-03-07T00:41:20;15.00;60.50
75719;DHT22;64340;48.534;-3.036;2024-03-07T00:43:46;15.00;60.60
75719;DHT22;64340;48.534;-3.036;2024-03-07T00:46:12;15.00;60.50
75719;DHT22;64340;48.534;-3.036;2024-03-07T00:48:38;15.00;60.60
75719;DHT22;64340;48.534;-3.036;2024-03-07T00:51:04;15.00;60.50
75719;DHT22;64340;48.534;-3.036;2024-03-07T00:53:30;15.00;60.50
75719;DHT22;64340;48.534;-3.036;2024-03-07T00:55:56;14.90;60.50
75719;DHT22;64340;48.534;-3.036;2024-03-07T00:58:22;14.90;60.60
75719;DHT22;64340;48.534;-3.036;2024-03-07T01:00:48;14.90;60.70
75719;DHT22;64340;48.534;-3.036;2024-03-07T01:03:13;14.90;60.60
75719;DHT22;64340;48.534;-3.036;2024-03-07T01:05:41;14.90;60.70
75719;DHT22;64340;48.534;-3.036;2024-03-07T01:08:07;14.80;60.70
75719;DHT22;64340;48.534;-3.036;2024-03-07T01:10:33;14.80;60.70
75719;DHT22;64340;48.534;-3.036;2024-03-07T01:12:59;14.80;60.70
75719;DHT22;64340;48.534;-3.036;2024-03-07T01:15:31;14.80;60.70
75719;DHT22;64340;48.534;-3.036;2024-03-07T01:17:58;14.80;60.80
75719;DHT22;64340;48.534;-3.036;2024-03-07T01:20:23;14.80;60.80
75719;DHT22;64340;48.534;-3.036;2024-03-07T01:22:51;14.80;60.70
75719;DHT22;64340;48.534;-3.036;2024-03-07T01:25:17;14.80;60.70
75719;DHT22;64340;48.534;-3.036;2024-03-07T01:27:44;14.70;60.70
75719;DHT22;64340;48.534;-3.036;2024-03-07T01:30:10;14.70;60.70
75719;DHT22;64340;48.534;-3.036;2024-03-07T01:32:36;14.70;60.70
75719;DHT22;64340;48.534;-3.036;2024-03-07T01:35:02;14.70;60.70
75719;DHT22;64340;48.534;-3.036;2024-03-07T01:37:28;14.70;60.70
75719;DHT22;64340;48.534;-3.036;2024-03-07T01:39:54;14.60;60.60
75719;DHT22;64340;48.534;-3.036;2024-03-07T01:42:20;14.60;60.60
75719;DHT22;64340;48.534;-3.036;2024-03-07T01:44:45;14.60;60.60
75719;DHT22;64340;48.534;-3.036;2024-03-07T01:47:12;14.60;60.60
75719;DHT22;64340;48.534;-3.036;2024-03-07T01:49:40;14.60;60.60
75719;DHT22;64340;48.534;-3.036;2024-03-07T01:52:06;14.60;60.60
75719;DHT22;64340;48.534;-3.036;2024-03-07T01:54:32;14.60;60.60
75719;DHT22;64340;48.534;-3.036;2024-03-07T01:56:58;14.50;60.60
75719;DHT22;64340;48.534;-3.036;2024-03-07T01:59:24;14.50;60.50
75719;DHT22;64340;48.534;-3.036;2024-03-07T02:01:52;14.50;60.50
75719;DHT22;64340;48.534;-3.036;2024-03-07T02:04:18;14.50;60.50
75719;DHT22;64340;48.534;-3.036;2024-03-07T02:06:44;14.50;60.50
75719;DHT22;64340;48.534;-3.036;2024-03-07T02:09:10;14.50;60.50
75719;DHT22;64340;48.534;-3.036;2024-03-07T02:11:36;14.50;60.50
75719;DHT22;64340;48.534;-3.036;2024-03-07T02:14:01;14.40;60.40
75719;DHT22;64340;48.534;-3.036;2024-03-07T02:16:28;14.40;60.40
75719;DHT22;64340;48.534;-3.036;2024-03-07T02:18:54;14.40;60.30
75719;DHT22;64340;48.534;-3.036;2024-03-07T02:21:20;14.40;60.40
75719;DHT22;64340;48.534;-3.036;2024-03-07T02:23:46;14.40;60.50
75719;DHT22;64340;48.534;-3.036;2024-03-07T02:26:12;14.40;60.60
75719;DHT22;64340;48.534;-3.036;2024-03-07T02:28:38;14.40;60.60
75719;DHT22;64340;48.534;-3.036;2024-03-07T02:31:04;14.40;60.70
75719;DHT22;64340;48.534;-3.036;2024-03-07T02:33:30;14.30;60.70
75719;DHT22;64340;48.534;-3.036;2024-03-07T02:35:58;14.30;60.70
75719;DHT22;64340;48.534;-3.036;2024-03-07T02:38:23;14.30;60.70
75719;DHT22;64340;48.534;-3.036;2024-03-07T02:40:49;14.30;60.70
75719;DHT22;64340;48.534;-3.036;2024-03-07T02:43:15;14.30;60.70
75719;DHT22;64340;48.534;-3.036;2024-03-07T02:45:41;14.30;60.70
75719;DHT22;64340;48.534;-3.036;2024-03-07T02:48:07;14.20;60.70
75719;DHT22;64340;48.534;-3.036;2024-03-07T02:50:35;14.20;60.80
75719;DHT22;64340;48.534;-3.036;2024-03-07T02:53:03;14.20;60.80
75719;DHT22;64340;48.534;-3.036;2024-03-07T02:55:29;14.20;60.70
75719;DHT22;64340;48.534;-3.036;2024-03-07T02:57:55;14.20;60.70
75719;DHT22;64340;48.534;-3.036;2024-03-07T03:00:24;14.20;60.80
75719;DHT22;64340;48.534;-3.036;2024-03-07T03:02:55;14.20;60.70
75719;DHT22;64340;48.534;-3.036;2024-03-07T03:05:21;14.20;60.80
75719;DHT22;64340;48.534;-3.036;2024-03-07T03:07:47;14.10;60.80
75719;DHT22;64340;48.534;-3.036;2024-03-07T03:10:23;14.10;60.80
75719;DHT22;64340;48.534;-3.036;2024-03-07T03:12:54;14.10;60.80
75719;DHT22;64340;48.534;-3.036;2024-03-07T03:15:20;14.10;60.80
75719;DHT22;64340;48.534;-3.036;2024-03-07T03:17:47;14.10;60.80
75719;DHT22;64340;48.534;-3.036;2024-03-07T03:20:13;14.10;60.80
75719;DHT22;64340;48.534;-3.036;2024-03-07T03:22:54;14.10;60.80
75719;DHT22;64340;48.534;-3.036;2024-03-07T03:25:20;14.10;60.80
75719;DHT22;64340;48.534;-3.036;2024-03-07T03:27:49;14.00;60.90
75719;DHT22;64340;48.534;-3.036;2024-03-07T03:30:15;14.00;60.90
75719;DHT22;64340;48.534;-3.036;2024-03-07T03:32:45;14.00;60.80
75719;DHT22;64340;48.534;-3.036;2024-03-07T03:35:11;14.00;60.90
75719;DHT22;64340;48.534;-3.036;2024-03-07T03:37:47;14.00;60.80
75719;DHT22;64340;48.534;-3.036;2024-03-07T03:40:13;14.00;60.80
75719;DHT22;64340;48.534;-3.036;2024-03-07T03:42:39;14.00;60.80
75719;DHT22;64340;48.534;-3.036;2024-03-07T03:45:07;14.00;60.80
75719;DHT22;64340;48.534;-3.036;2024-03-07T03:47:37;13.90;60.80
75719;DHT22;64340;48.534;-3.036;2024-03-07T03:50:07;13.90;60.70
75719;DHT22;64340;48.534;-3.036;2024-03-07T03:52:34;13.90;60.70
75719;DHT22;64340;48.534;-3.036;2024-03-07T03:55:05;13.90;60.80
75719;DHT22;64340;48.534;-3.036;2024-03-07T03:57:31;13.90;60.70
75719;DHT22;64340;48.534;-3.036;2024-03-07T03:59:57;13.90;60.70
75719;DHT22;64340;48.534;-3.036;2024-03-07T04:02:23;13.90;60.70
75719;DHT22;64340;48.534;-3.036;2024-03-07T04:04:50;13.90;60.70
75719;DHT22;64340;48.534;-3.036;2024-03-07T04:07:17;13.90;60.60
75719;DHT22;64340;48.534;-3.036;2024-03-07T04:09:43;13.90;60.60
75719;DHT22;64340;48.534;-3.036;2024-03-07T04:12:10;13.90;60.60
75719;DHT22;64340;48.534;-3.036;2024-03-07T04:14:42;13.90;60.60
75719;DHT22;64340;48.534;-3.036;2024-03-07T04:17:11;13.90;60.60
75719;DHT22;64340;48.534;-3.036;2024-03-07T04:19:40;13.90;60.70
75719;DHT22;64340;48.534;-3.036;2024-03-07T04:22:07;13.80;60.60
75719;DHT22;64340;48.534;-3.036;2024-03-07T04:24:34;13.80;60.60
75719;DHT22;64340;48.534;-3.036;2024-03-07T04:27:01;13.80;60.70
75719;DHT22;64340;48.534;-3.036;2024-03-07T04:29:32;13.80;60.50
75719;DHT22;64340;48.534;-3.036;2024-03-07T04:31:59;13.70;60.50
75719;DHT22;64340;48.534;-3.036;2024-03-07T04:34:25;13.70;60.50
75719;DHT22;64340;48.534;-3.036;2024-03-07T04:36:51;13.70;60.30
75719;DHT22;64340;48.534;-3.036;2024-03-07T04:39:17;13.70;60.50
75719;DHT22;64340;48.534;-3.036;2024-03-07T04:42:04;13.70;60.50
75719;DHT22;64340;48.534;-3.036;2024-03-07T04:44:32;13.70;60.50
75719;DHT22;64340;48.534;-3.036;2024-03-07T04:46:59;13.70;60.60
75719;DHT22;64340;48.534;-3.036;2024-03-07T04:49:27;13.60;60.40
75719;DHT22;64340;48.534;-3.036;2024-03-07T04:51:54;13.60;60.50
75719;DHT22;64340;48.534;-3.036;2024-03-07T04:54:21;13.60;60.50
75719;DHT22;64340;48.534;-3.036;2024-03-07T04:56:49;13.60;60.50
75719;DHT22;64340;48.534;-3.036;2024-03-07T04:59:15;13.60;60.60
75719;DHT22;64340;48.534;-3.036;2024-03-07T05:01:42;13.60;60.70
75719;DHT22;64340;48.534;-3.036;2024-03-07T05:04:08;13.60;60.60
75719;DHT22;64340;48.534;-3.036;2024-03-07T05:06:34;13.60;60.70
75719;DHT22;64340;48.534;-3.036;2024-03-07T05:09:03;13.60;60.60
75719;DHT22;64340;48.534;-3.036;2024-03-07T05:11:33;13.60;60.60
75719;DHT22;64340;48.534;-3.036;2024-03-07T05:13:59;13.50;60.20
75719;DHT22;64340;48.534;-3.036;2024-03-07T05:16:29;13.40;60.10
75719;DHT22;64340;48.534;-3.036;2024-03-07T05:18:56;13.50;60.50
75719;DHT22;64340;48.534;-3.036;2024-03-07T05:21:26;13.50;60.70
75719;DHT22;64340;48.534;-3.036;2024-03-07T05:23:58;13.50;60.70
75719;DHT22;64340;48.534;-3.036;2024-03-07T05:26:24;13.50;60.90
75719;DHT22;64340;48.534;-3.036;2024-03-07T05:28:50;13.50;61.00
75719;DHT22;64340;48.534;-3.036;2024-03-07T05:31:17;13.50;61.10
75719;DHT22;64340;48.534;-3.036;2024-03-07T05:33:44;13.50;61.10
75719;DHT22;64340;48.534;-3.036;2024-03-07T05:36:10;13.50;61.20
75719;DHT22;64340;48.534;-3.036;2024-03-07T05:38:42;13.50;61.20
75719;DHT22;64340;48.534;-3.036;2024-03-07T05:41:13;13.50;61.30
75719;DHT22;64340;48.534;-3.036;2024-03-07T05:43:40;13.50;61.30
75719;DHT22;64340;48.534;-3.036;2024-03-07T05:46:05;13.50;61.50
75719;DHT22;64340;48.534;-3.036;2024-03-07T05:48:33;13.50;58.40
75719;DHT22;64340;48.534;-3.036;2024-03-07T05:50:59;12.80;56.50
75719;DHT22;64340;48.534;-3.036;2024-03-07T05:53:25;12.20;56.70
75719;DHT22;64340;48.534;-3.036;2024-03-07T05:55:51;11.90;56.80
75719;DHT22;64340;48.534;-3.036;2024-03-07T05:58:17;11.60;56.60
75719;DHT22;64340;48.534;-3.036;2024-03-07T06:00:48;11.40;56.80
75719;DHT22;64340;48.534;-3.036;2024-03-07T06:03:17;11.30;58.60
75719;DHT22;64340;48.534;-3.036;2024-03-07T06:05:45;11.70;58.70
75719;DHT22;64340;48.534;-3.036;2024-03-07T06:08:16;12.10;58.40
75719;DHT22;64340;48.534;-3.036;2024-03-07T06:10:43;12.50;57.90
75719;DHT22;64340;48.534;-3.036;2024-03-07T06:13:09;12.70;58.20
75719;DHT22;64340;48.534;-3.036;2024-03-07T06:15:39;13.00;58.10
75719;DHT22;64340;48.534;-3.036;2024-03-07T06:18:08;13.10;58.10
75719;DHT22;64340;48.534;-3.036;2024-03-07T06:20:36;13.30;58.10
75719;DHT22;64340;48.534;-3.036;2024-03-07T06:23:03;13.50;58.20
75719;DHT22;64340;48.534;-3.036;2024-03-07T06:25:33;13.70;58.20
75719;DHT22;64340;48.534;-3.036;2024-03-07T06:28:06;13.90;58.80
75719;DHT22;64340;48.534;-3.036;2024-03-07T06:30:42;14.00;60.50
75719;DHT22;64340;48.534;-3.036;2024-03-07T06:33:11;14.10;59.70
75719;DHT22;64340;48.534;-3.036;2024-03-07T06:35:38;14.10;60.70
75719;DHT22;64340;48.534;-3.036;2024-03-07T06:38:08;14.30;61.60
75719;DHT22;64340;48.534;-3.036;2024-03-07T06:40:36;14.40;61.20
75719;DHT22;64340;48.534;-3.036;2024-03-07T06:43:02;14.50;61.80
75719;DHT22;64340;48.534;-3.036;2024-03-07T06:45:38;14.60;62.10
75719;DHT22;64340;48.534;-3.036;2024-03-07T06:48:07;14.70;61.70
75719;DHT22;64340;48.534;-3.036;2024-03-07T06:50:37;14.80;61.80
75719;DHT22;64340;48.534;-3.036;2024-03-07T06:53:04;14.90;61.80
75719;DHT22;64340;48.534;-3.036;2024-03-07T06:55:32;15.00;61.50
75719;DHT22;64340;48.534;-3.036;2024-03-07T06:58:01;15.00;61.40
75719;DHT22;64340;48.534;-3.036;2024-03-07T07:00:30;15.10;61.20
75719;DHT22;64340;48.534;-3.036;2024-03-07T07:02:58;15.20;61.10
75719;DHT22;64340;48.534;-3.036;2024-03-07T07:05:23;15.30;61.10
75719;DHT22;64340;48.534;-3.036;2024-03-07T07:07:49;15.40;61.00
75719;DHT22;64340;48.534;-3.036;2024-03-07T07:10:16;15.40;60.90
75719;DHT22;64340;48.534;-3.036;2024-03-07T07:12:47;15.50;60.80
75719;DHT22;64340;48.534;-3.036;2024-03-07T07:15:15;15.50;60.80
75719;DHT22;64340;48.534;-3.036;2024-03-07T07:17:43;15.50;60.60
75719;DHT22;64340;48.534;-3.036;2024-03-07T07:20:11;15.60;60.60
75719;DHT22;64340;48.534;-3.036;2024-03-07T07:22:39;15.60;60.50
75719;DHT22;64340;48.534;-3.036;2024-03-07T07:25:06;15.60;60.40
75719;DHT22;64340;48.534;-3.036;2024-03-07T07:27:43;15.60;60.40
75719;DHT22;64340;48.534;-3.036;2024-03-07T07:30:10;15.60;60.40
75719;DHT22;64340;48.534;-3.036;2024-03-07T07:32:36;15.70;60.40
75719;DHT22;64340;48.534;-3.036;2024-03-07T07:35:03;15.70;60.30
75719;DHT22;64340;48.534;-3.036;2024-03-07T07:37:28;15.80;60.30
75719;DHT22;64340;48.534;-3.036;2024-03-07T07:39:54;15.80;60.20
75719;DHT22;64340;48.534;-3.036;2024-03-07T07:42:20;15.80;60.20
75719;DHT22;64340;48.534;-3.036;2024-03-07T07:44:46;15.80;60.20
75719;DHT22;64340;48.534;-3.036;2024-03-07T07:47:11;15.80;60.20
75719;DHT22;64340;48.534;-3.036;2024-03-07T07:49:40;15.80;60.20
75719;DHT22;64340;48.534;-3.036;2024-03-07T07:52:07;15.80;60.30
75719;DHT22;64340;48.534;-3.036;2024-03-07T07:54:34;15.90;60.30
75719;DHT22;64340;48.534;-3.036;2024-03-07T07:56:59;15.90;60.20
75719;DHT22;64340;48.534;-3.036;2024-03-07T07:59:25;16.00;60.20
75719;DHT22;64340;48.534;-3.036;2024-03-07T08:01:51;16.00;60.10
75719;DHT22;64340;48.534;-3.036;2024-03-07T08:04:18;16.00;60.20
75719;DHT22;64340;48.534;-3.036;2024-03-07T08:06:44;16.00;60.20
75719;DHT22;64340;48.534;-3.036;2024-03-07T08:09:10;15.90;60.20
75719;DHT22;64340;48.534;-3.036;2024-03-07T08:11:36;15.90;60.30
75719;DHT22;64340;48.534;-3.036;2024-03-07T08:14:07;15.90;60.40
75719;DHT22;64340;48.534;-3.036;2024-03-07T08:16:32;15.90;60.30
75719;DHT22;64340;48.534;-3.036;2024-03-07T08:18:59;15.60;59.00
75719;DHT22;64340;48.534;-3.036;2024-03-07T08:21:25;15.40;60.20
75719;DHT22;64340;48.534;-3.036;2024-03-07T08:23:51;15.60;59.90
75719;DHT22;64340;48.534;-3.036;2024-03-07T08:26:17;15.70;59.80
75719;DHT22;64340;48.534;-3.036;2024-03-07T08:28:44;15.80;59.70
75719;DHT22;64340;48.534;-3.036;2024-03-07T08:31:10;16.00;59.50
75719;DHT22;64340;48.534;-3.036;2024-03-07T08:33:36;16.00;59.40
75719;DHT22;64340;48.534;-3.036;2024-03-07T08:36:02;16.00;59.30
75719;DHT22;64340;48.534;-3.036;2024-03-07T08:38:27;16.00;59.20
75719;DHT22;64340;48.534;-3.036;2024-03-07T08:40:53;16.00;59.30
75719;DHT22;64340;48.534;-3.036;2024-03-07T08:43:20;16.00;59.20
75719;DHT22;64340;48.534;-3.036;2024-03-07T08:45:46;16.00;59.20
75719;DHT22;64340;48.534;-3.036;2024-03-07T08:48:12;16.00;59.10
75719;DHT22;64340;48.534;-3.036;2024-03-07T08:50:38;16.00;59.00
75719;DHT22;64340;48.534;-3.036;2024-03-07T08:53:04;16.00;59.00
75719;DHT22;64340;48.534;-3.036;2024-03-07T08:55:30;16.00;58.90
75719;DHT22;64340;48.534;-3.036;2024-03-07T08:58:01;16.00;58.90
75719;DHT22;64340;48.534;-3.036;2024-03-07T09:00:27;16.00;58.70
75719;DHT22;64340;48.534;-3.036;2024-03-07T09:02:54;16.00;58.70
75719;DHT22;64340;48.534;-3.036;2024-03-07T09:05:24;16.00;58.70
75719;DHT22;64340;48.534;-3.036;2024-03-07T09:07:53;16.00;58.60
75719;DHT22;64340;48.534;-3.036;2024-03-07T09:10:19;16.00;58.50
75719;DHT22;64340;48.534;-3.036;2024-03-07T09:12:46;16.10;58.40
75719;DHT22;64340;48.534;-3.036;2024-03-07T09:15:13;16.10;58.40
75719;DHT22;64340;48.534;-3.036;2024-03-07T09:17:41;16.20;58.20
75719;DHT22;64340;48.534;-3.036;2024-03-07T09:20:08;16.20;58.20
75719;DHT22;64340;48.534;-3.036;2024-03-07T09:22:40;16.20;58.10
75719;DHT22;64340;48.534;-3.036;2024-03-07T09:25:07;16.20;58.00
75719;DHT22;64340;48.534;-3.036;2024-03-07T09:27:33;16.30;57.90
75719;DHT22;64340;48.534;-3.036;2024-03-07T09:29:59;16.30;57.80
75719;DHT22;64340;48.534;-3.036;2024-03-07T09:32:25;16.40;57.80
75719;DHT22;64340;48.534;-3.036;2024-03-07T09:34:51;16.40;57.70
75719;DHT22;64340;48.534;-3.036;2024-03-07T09:37:16;16.40;57.60
75719;DHT22;64340;48.534;-3.036;2024-03-07T09:39:43;16.40;57.60
75719;DHT22;64340;48.534;-3.036;2024-03-07T09:42:09;16.40;57.50
75719;DHT22;64340;48.534;-3.036;2024-03-07T09:44:42;16.50;57.40
75719;DHT22;64340;48.534;-3.036;2024-03-07T09:47:09;16.50;57.30
75719;DHT22;64340;48.534;-3.036;2024-03-07T09:49:36;16.60;57.30
75719;DHT22;64340;48.534;-3.036;2024-03-07T09:52:09;16.60;57.20
75719;DHT22;64340;48.534;-3.036;2024-03-07T09:54:39;16.60;56.60
75719;DHT22;64340;48.534;-3.036;2024-03-07T09:57:09;16.60;56.70
75719;DHT22;64340;48.534;-3.036;2024-03-07T09:59:36;16.70;56.80
75719;DHT22;64340;48.534;-3.036;2024-03-07T10:02:06;16.80;56.60
75719;DHT22;64340;48.534;-3.036;2024-03-07T10:07:07;16.70;56.40
75719;DHT22;64340;48.534;-3.036;2024-03-07T10:09:38;16.70;56.50
75719;DHT22;64340;48.534;-3.036;2024-03-07T10:12:04;16.80;56.50
75719;DHT22;64340;48.534;-3.036;2024-03-07T10:14:32;16.80;56.50
75719;DHT22;64340;48.534;-3.036;2024-03-07T10:16:58;16.80;56.30
75719;DHT22;64340;48.534;-3.036;2024-03-07T10:19:24;16.90;56.40
75719;DHT22;64340;48.534;-3.036;2024-03-07T10:21:50;16.90;56.50
75719;DHT22;64340;48.534;-3.036;2024-03-07T10:24:17;16.90;56.60
75719;DHT22;64340;48.534;-3.036;2024-03-07T10:26:49;16.90;56.60
75719;DHT22;64340;48.534;-3.036;2024-03-07T10:29:17;17.00;56.70
75719;DHT22;64340;48.534;-3.036;2024-03-07T10:31:44;17.00;55.60
75719;DHT22;64340;48.534;-3.036;2024-03-07T10:34:11;17.00;56.20
75719;DHT22;64340;48.534;-3.036;2024-03-07T10:36:37;17.20;56.60
75719;DHT22;64340;48.534;-3.036;2024-03-07T10:39:03;17.50;56.20
75719;DHT22;64340;48.534;-3.036;2024-03-07T10:41:44;17.50;56.40
75719;DHT22;64340;48.534;-3.036;2024-03-07T10:44:11;17.50;56.50
75719;DHT22;64340;48.534;-3.036;2024-03-07T10:46:42;17.50;56.40
75719;DHT22;64340;48.534;-3.036;2024-03-07T10:49:12;17.50;56.30
75719;DHT22;64340;48.534;-3.036;2024-03-07T10:51:45;17.50;56.30
75719;DHT22;64340;48.534;-3.036;2024-03-07T10:54:20;17.70;56.40
75719;DHT22;64340;48.534;-3.036;2024-03-07T10:57:01;17.80;56.20
75719;DHT22;64340;48.534;-3.036;2024-03-07T10:59:31;17.80;55.90
75719;DHT22;64340;48.534;-3.036;2024-03-07T11:02:32;18.00;56.00
75719;DHT22;64340;48.534;-3.036;2024-03-07T11:05:00;18.00;55.80
75719;DHT22;64340;48.534;-3.036;2024-03-07T11:07:25;18.00;55.60
75719;DHT22;64340;48.534;-3.036;2024-03-07T11:09:53;18.10;55.80
75719;DHT22;64340;48.534;-3.036;2024-03-07T11:12:24;18.10;55.60
75719;DHT22;64340;48.534;-3.036;2024-03-07T11:14:52;18.10;55.70
75719;DHT22;64340;48.534;-3.036;2024-03-07T11:17:20;18.10;55.90
75719;DHT22;64340;48.534;-3.036;2024-03-07T11:19:46;18.20;56.10
75719;DHT22;64340;48.534;-3.036;2024-03-07T11:22:31;18.20;55.80
75719;DHT22;64340;48.534;-3.036;2024-03-07T11:25:02;18.30;56.20
75719;DHT22;64340;48.534;-3.036;2024-03-07T11:27:39;18.40;56.40
75719;DHT22;64340;48.534;-3.036;2024-03-07T11:30:09;18.40;56.40
75719;DHT22;64340;48.534;-3.036;2024-03-07T11:32:38;18.40;56.40
75719;DHT22;64340;48.534;-3.036;2024-03-07T11:35:04;18.40;56.90
75719;DHT22;64340;48.534;-3.036;2024-03-07T11:37:43;18.50;56.40
75719;DHT22;64340;48.534;-3.036;2024-03-07T11:40:12;18.60;56.00
75719;DHT22;64340;48.534;-3.036;2024-03-07T11:42:47;18.60;55.90
75719;DHT22;64340;48.534;-3.036;2024-03-07T11:45:14;18.60;55.90
75719;DHT22;64340;48.534;-3.036;2024-03-07T11:47:51;18.60;55.40
75719;DHT22;64340;48.534;-3.036;2024-03-07T11:50:17;18.60;55.70
75719;DHT22;64340;48.534;-3.036;2024-03-07T11:52:45;18.70;55.60
75719;DHT22;64340;48.534;-3.036;2024-03-07T11:55:12;18.70;55.30
75719;DHT22;64340;48.534;-3.036;2024-03-07T11:57:38;18.70;55.40
75719;DHT22;64340;48.534;-3.036;2024-03-07T12:00:10;18.70;55.40
75719;DHT22;64340;48.534;-3.036;2024-03-07T12:02:40;18.60;55.20
75719;DHT22;64340;48.534;-3.036;2024-03-07T12:05:06;18.60;54.20
75719;DHT22;64340;48.534;-3.036;2024-03-07T12:07:33;18.50;53.90
75719;DHT22;64340;48.534;-3.036;2024-03-07T12:10:03;18.50;54.10
75719;DHT22;64340;48.534;-3.036;2024-03-07T12:12:30;18.50;53.70
75719;DHT22;64340;48.534;-3.036;2024-03-07T12:14:56;18.50;53.90
75719;DHT22;64340;48.534;-3.036;2024-03-07T12:17:23;18.50;53.90
75719;DHT22;64340;48.534;-3.036;2024-03-07T12:19:50;18.60;54.00
75719;DHT22;64340;48.534;-3.036;2024-03-07T12:22:20;18.50;54.10
75719;DHT22;64340;48.534;-3.036;2024-03-07T12:25:10;18.50;54.20
75719;DHT22;64340;48.534;-3.036;2024-03-07T12:27:36;18.60;54.20
75719;DHT22;64340;48.534;-3.036;2024-03-07T12:30:15;18.60;54.40
75719;DHT22;64340;48.534;-3.036;2024-03-07T12:32:48;18.50;54.60
75719;DHT22;64340;48.534;-3.036;2024-03-07T12:35:15;18.50;54.60
75719;DHT22;64340;48.534;-3.036;2024-03-07T12:37:41;18.50;54.50
75719;DHT22;64340;48.534;-3.036;2024-03-07T12:40:13;18.50;54.60
75719;DHT22;64340;48.534;-3.036;2024-03-07T12:42:48;18.50;54.70
75719;DHT22;64340;48.534;-3.036;2024-03-07T12:45:16;18.50;54.80
75719;DHT22;64340;48.534;-3.036;2024-03-07T12:47:48;18.50;54.90
75719;DHT22;64340;48.534;-3.036;2024-03-07T12:50:18;18.50;54.90
75719;DHT22;64340;48.534;-3.036;2024-03-07T12:52:47;18.50;55.00
75719;DHT22;64340;48.534;-3.036;2024-03-07T12:55:16;18.50;55.00
75719;DHT22;64340;48.534;-3.036;2024-03-07T12:57:47;18.50;54.90
75719;DHT22;64340;48.534;-3.036;2024-03-07T13:00:18;18.40;55.00
75719;DHT22;64340;48.534;-3.036;2024-03-07T13:02:49;18.40;55.00
75719;DHT22;64340;48.534;-3.036;2024-03-07T13:05:15;18.30;54.00
75719;DHT22;64340;48.534;-3.036;2024-03-07T13:07:49;18.20;52.20
75719;DHT22;64340;48.534;-3.036;2024-03-07T13:10:15;18.20;51.50
75719;DHT22;64340;48.534;-3.036;2024-03-07T13:12:44;18.20;52.00
75719;DHT22;64340;48.534;-3.036;2024-03-07T13:15:11;18.30;52.20
75719;DHT22;64340;48.534;-3.036;2024-03-07T13:17:37;18.30;52.50
75719;DHT22;64340;48.534;-3.036;2024-03-07T13:20:04;18.40;52.60
75719;DHT22;64340;48.534;-3.036;2024-03-07T13:22:41;18.50;52.70
75719;DHT22;64340;48.534;-3.036;2024-03-07T13:25:25;18.60;52.80
75719;DHT22;64340;48.534;-3.036;2024-03-07T13:30:21;18.90;52.80
75719;DHT22;64340;48.534;-3.036;2024-03-07T13:32:56;19.00;53.10
75719;DHT22;64340;48.534;-3.036;2024-03-07T13:35:23;19.10;52.90
75719;DHT22;64340;48.534;-3.036;2024-03-07T13:37:51;19.20;52.90
75719;DHT22;64340;48.534;-3.036;2024-03-07T13:40:19;19.20;52.90
75719;DHT22;64340;48.534;-3.036;2024-03-07T13:42:58;19.20;52.90
75719;DHT22;64340;48.534;-3.036;2024-03-07T13:47:57;19.40;52.90
75719;DHT22;64340;48.534;-3.036;2024-03-07T13:50:27;19.40;52.90
75719;DHT22;64340;48.534;-3.036;2024-03-07T13:52:56;19.40;52.80
75719;DHT22;64340;48.534;-3.036;2024-03-07T14:01:46;19.50;52.90
75719;DHT22;64340;48.534;-3.036;2024-03-07T14:12:54;19.70;53.10
75719;DHT22;64340;48.534;-3.036;2024-03-07T14:15:42;19.70;53.10
75719;DHT22;64340;48.534;-3.036;2024-03-07T14:23:43;19.70;52.80
75719;DHT22;64340;48.534;-3.036;2024-03-07T14:26:37;19.70;52.70
75719;DHT22;64340;48.534;-3.036;2024-03-07T14:31:46;19.70;53.10
75719;DHT22;64340;48.534;-3.036;2024-03-07T14:36:49;19.60;53.10
75719;DHT22;64340;48.534;-3.036;2024-03-07T14:39:18;19.60;53.00
75719;DHT22;64340;48.534;-3.036;2024-03-07T14:41:58;19.50;53.00
75719;DHT22;64340;48.534;-3.036;2024-03-07T14:44:24;19.50;53.00
75719;DHT22;64340;48.534;-3.036;2024-03-07T14:47:04;19.50;53.10
75719;DHT22;64340;48.534;-3.036;2024-03-07T14:49:35;19.50;53.20
75719;DHT22;64340;48.534;-3.036;2024-03-07T14:52:01;19.50;53.10
75719;DHT22;64340;48.534;-3.036;2024-03-07T14:54:28;19.50;53.50
75719;DHT22;64340;48.534;-3.036;2024-03-07T14:56:54;19.50;53.40
75719;DHT22;64340;48.534;-3.036;2024-03-07T14:59:20;19.50;53.40
75719;DHT22;64340;48.534;-3.036;2024-03-07T15:01:46;19.50;53.40
75719;DHT22;64340;48.534;-3.036;2024-03-07T15:04:13;19.50;53.50
75719;DHT22;64340;48.534;-3.036;2024-03-07T15:06:42;19.40;53.70
75719;DHT22;64340;48.534;-3.036;2024-03-07T15:09:11;19.40;53.90
75719;DHT22;64340;48.534;-3.036;2024-03-07T15:11:39;19.40;54.00
75719;DHT22;64340;48.534;-3.036;2024-03-07T15:14:06;19.30;54.00
75719;DHT22;64340;48.534;-3.036;2024-03-07T15:16:37;19.30;54.20
75719;DHT22;64340;48.534;-3.036;2024-03-07T15:19:04;19.30;53.90
75719;DHT22;64340;48.534;-3.036;2024-03-07T15:21:30;19.30;54.20
75719;DHT22;64340;48.534;-3.036;2024-03-07T15:23:56;19.30;54.10
75719;DHT22;64340;48.534;-3.036;2024-03-07T15:26:22;19.30;54.30
75719;DHT22;64340;48.534;-3.036;2024-03-07T15:28:55;19.30;54.50
75719;DHT22;64340;48.534;-3.036;2024-03-07T15:31:20;19.20;54.50
75719;DHT22;64340;48.534;-3.036;2024-03-07T15:33:46;19.20;54.60
75719;DHT22;64340;48.534;-3.036;2024-03-07T15:36:13;19.30;54.40
75719;DHT22;64340;48.534;-3.036;2024-03-07T15:38:39;19.30;54.40
75719;DHT22;64340;48.534;-3.036;2024-03-07T15:41:05;19.30;54.30
75719;DHT22;64340;48.534;-3.036;2024-03-07T15:43:36;19.30;54.50
75719;DHT22;64340;48.534;-3.036;2024-03-07T15:46:02;19.30;54.40
75719;DHT22;64340;48.534;-3.036;2024-03-07T15:48:29;19.30;54.40
75719;DHT22;64340;48.534;-3.036;2024-03-07T15:50:56;19.30;54.40
75719;DHT22;64340;48.534;-3.036;2024-03-07T15:53:25;19.30;54.40
75719;DHT22;64340;48.534;-3.036;2024-03-07T15:55:51;19.30;54.40